createdAt,value
2019-05-16T00:07:21.191Z,8.1
2019-05-16T00:22:36.289Z,8.1
2019-05-16T00:37:49.678Z,8
2019-05-16T00:53:03.099Z,7.9
2019-05-16T01:08:09.826Z,7.8
2019-05-16T01:23:29.778Z,7.7
2019-05-16T01:38:43.307Z,7.5
2019-05-16T01:53:57.996Z,7.4
2019-05-16T02:09:11.418Z,7.2
2019-05-16T02:24:22.620Z,7.1
2019-05-16T02:39:35.760Z,6.9
2019-05-16T02:54:51.713Z,6.9
2019-05-16T03:10:02.239Z,6.8
2019-05-16T03:25:11.956Z,6.9
2019-05-16T03:40:31.327Z,6.8
2019-05-16T03:55:40.963Z,6.7
2019-05-16T04:10:53.577Z,6.6
2019-05-16T04:26:00.633Z,6.5
2019-05-16T04:41:21.055Z,6.5
2019-05-16T04:56:32.157Z,6.5
2019-05-16T05:11:45.452Z,6.5
2019-05-16T05:26:59.767Z,6.6
2019-05-16T05:42:12.022Z,6.7
2019-05-16T05:57:23.799Z,6.8
2019-05-16T06:12:37.291Z,6.8
2019-05-16T06:27:51.111Z,6.8
2019-05-16T06:43:00.322Z,7
2019-05-16T06:58:15.822Z,7
2019-05-16T07:13:30.321Z,7.2
2019-05-16T07:28:42.996Z,7.3
2019-05-16T07:43:46.461Z,7.5
2019-05-16T07:59:10.316Z,7.9
2019-05-16T08:14:22.054Z,7.8
2019-05-16T08:29:35.482Z,8
2019-05-16T08:44:51.584Z,8.2
2019-05-16T09:00:02.546Z,8.3
2019-05-16T09:15:17.037Z,8.7
2019-05-16T09:30:29.950Z,9
2019-05-16T09:45:43.800Z,9.2
2019-05-16T10:00:52.731Z,9.6
2019-05-16T10:16:11.912Z,10.1
2019-05-16T10:31:38.437Z,10.4
2019-05-16T10:47:17.857Z,10.6
2019-05-16T11:02:46.185Z,10.3
2019-05-16T11:18:07.043Z,10.6
2019-05-16T11:33:21.060Z,10.6
2019-05-16T11:48:37.616Z,10.5
2019-05-16T12:03:49.844Z,10.4
2019-05-16T12:19:06.680Z,10.4
2019-05-16T12:34:18.611Z,10.7
2019-05-16T12:49:33.142Z,10.9
2019-05-16T13:04:47.683Z,11.2
2019-05-16T13:20:00.038Z,11.4
2019-05-16T13:35:17.321Z,11.7
2019-05-16T13:50:31.990Z,11.5
2019-05-16T14:05:47.723Z,11.6
2019-05-16T14:20:52.388Z,11.6
2019-05-16T14:36:16.400Z,11.6
2019-05-16T14:51:32.029Z,11.5
2019-05-16T15:06:46.936Z,11.6
2019-05-16T15:22:02.492Z,11.8
2019-05-16T15:37:16.927Z,12.1
2019-05-16T15:52:30.900Z,12.2
2019-05-16T16:07:48.088Z,11.8
2019-05-16T16:23:00.735Z,11.8
2019-05-16T16:38:07.600Z,11.9
2019-05-16T16:53:30.534Z,11.9
2019-05-16T17:08:47.367Z,11.8
2019-05-16T17:24:00.278Z,11.6
2019-05-16T17:39:15.198Z,11.6
2019-05-16T17:54:29.570Z,11.6
2019-05-16T18:09:45.238Z,11.4
2019-05-16T18:24:59.290Z,11.2
2019-05-16T18:40:16.380Z,11
2019-05-16T18:55:22.185Z,10.9
2019-05-16T19:10:43.090Z,10.9
2019-05-16T19:25:57.561Z,10.7
2019-05-16T19:41:12.372Z,10.5
2019-05-16T19:56:13.979Z,10.4
2019-05-16T20:11:40.608Z,10.4
2019-05-16T20:26:56.930Z,10.3
2019-05-16T20:42:09.212Z,10.3
2019-05-16T20:57:23.474Z,10.3
2019-05-16T21:12:33.685Z,10.3
2019-05-16T21:27:51.995Z,10.2
2019-05-16T21:43:07.420Z,10.1
2019-05-16T21:58:20.410Z,10.1
2019-05-16T22:13:24.771Z,10.1
2019-05-16T22:28:49.418Z,11.4
2019-05-16T22:44:03.883Z,11.6
2019-05-16T22:59:18.705Z,11.1
2019-05-16T23:14:33.183Z,10.5
2019-05-16T23:29:43.833Z,10.2
2019-05-16T23:45:01.634Z,10
